createdAt,value
2018-01-22T00:00:27.935Z,70.00
2018-01-22T00:02:56.208Z,69.80
2018-01-22T00:05:24.452Z,69.50
2018-01-22T00:07:53.454Z,69.80
2018-01-22T00:10:22.477Z,69.60
2018-01-22T00:12:50.955Z,69.60
2018-01-22T00:15:19.217Z,69.80
2018-01-22T00:17:47.500Z,69.70
2018-01-22T00:20:15.719Z,70.10
2018-01-22T00:22:43.968Z,70.00
2018-01-22T00:25:12.254Z,70.00
2018-01-22T00:27:40.532Z,70.00
2018-01-22T00:30:08.763Z,69.90
2018-01-22T00:32:37.850Z,70.30
2018-01-22T00:35:06.082Z,70.10
2018-01-22T00:37:34.365Z,70.80
2018-01-22T00:40:02.603Z,70.30
2018-01-22T00:42:30.841Z,70.20
2018-01-22T00:44:59.131Z,70.00
2018-01-22T00:47:27.359Z,70.00
2018-01-22T00:49:55.634Z,69.70
2018-01-22T00:52:23.918Z,70.00
2018-01-22T00:54:52.189Z,69.80
2018-01-22T00:57:20.479Z,69.70
2018-01-22T00:59:48.753Z,69.60
2018-01-22T01:02:17.029Z,69.60
2018-01-22T01:04:45.299Z,69.60
2018-01-22T01:07:13.612Z,69.60
2018-01-22T01:09:41.875Z,69.40
2018-01-22T01:12:10.114Z,69.30
2018-01-22T01:14:38.704Z,69.50
2018-01-22T01:17:06.956Z,69.60
2018-01-22T01:19:35.995Z,69.50
2018-01-22T01:22:04.286Z,69.30
2018-01-22T01:24:32.554Z,69.30
2018-01-22T01:27:00.801Z,69.30
2018-01-22T01:29:29.335Z,69.50
2018-01-22T01:31:57.583Z,69.30
2018-01-22T01:34:25.871Z,69.40
2018-01-22T01:36:54.127Z,69.40
2018-01-22T01:39:22.374Z,69.40
2018-01-22T01:41:51.414Z,69.40
2018-01-22T01:44:19.658Z,69.40
2018-01-22T01:46:47.894Z,69.60
2018-01-22T01:49:16.204Z,69.70
2018-01-22T01:51:45.988Z,69.20
2018-01-22T01:54:14.204Z,69.80
2018-01-22T01:56:42.513Z,69.80
2018-01-22T01:59:11.019Z,69.50
2018-01-22T02:01:39.309Z,69.70
2018-01-22T02:04:07.546Z,69.50
2018-01-22T02:06:35.789Z,70.10
2018-01-22T02:09:04.128Z,69.60
2018-01-22T02:11:32.398Z,69.50
2018-01-22T02:14:00.640Z,69.70
2018-01-22T02:16:28.923Z,69.60
2018-01-22T02:18:57.232Z,69.30
2018-01-22T02:21:25.469Z,69.30
2018-01-22T02:23:53.787Z,69.20
2018-01-22T02:26:22.017Z,69.40
2018-01-22T02:28:50.294Z,69.60
2018-01-22T02:31:18.558Z,69.60
2018-01-22T02:33:46.847Z,69.50
2018-01-22T02:36:15.143Z,69.50
2018-01-22T02:38:43.433Z,69.60
2018-01-22T02:41:11.650Z,69.50
2018-01-22T02:43:40.653Z,69.80
2018-01-22T02:46:08.918Z,69.70
2018-01-22T02:48:37.905Z,69.60
2018-01-22T02:51:06.985Z,69.50
2018-01-22T02:53:35.206Z,69.40
2018-01-22T02:56:03.484Z,69.70
2018-01-22T02:58:31.745Z,69.80
2018-01-22T03:01:00.755Z,69.90
2018-01-22T03:03:29.005Z,69.90
2018-01-22T03:05:58.064Z,70.00
2018-01-22T03:08:26.319Z,70.00
2018-01-22T03:10:54.552Z,70.00
2018-01-22T03:13:23.548Z,70.10
2018-01-22T03:15:52.568Z,70.00
2018-01-22T03:18:21.487Z,70.00
2018-01-22T03:20:49.744Z,69.90
2018-01-22T03:23:18.074Z,69.90
2018-01-22T03:25:46.317Z,69.60
2018-01-22T03:28:14.560Z,69.50
2018-01-22T03:30:42.857Z,69.90
2018-01-22T03:33:11.138Z,69.90
2018-01-22T03:35:39.415Z,70.00
2018-01-22T03:38:07.674Z,69.50
2018-01-22T03:40:35.923Z,69.70
2018-01-22T03:43:05.660Z,69.50
2018-01-22T03:45:33.919Z,69.40
2018-01-22T03:48:03.031Z,69.40
2018-01-22T03:50:31.249Z,69.30
2018-01-22T03:52:59.503Z,69.20
2018-01-22T03:55:27.814Z,69.20
2018-01-22T03:57:56.086Z,69.30
2018-01-22T04:00:24.372Z,69.60
2018-01-22T04:02:52.611Z,69.40
2018-01-22T04:05:20.849Z,69.20
2018-01-22T04:07:49.933Z,69.40
2018-01-22T04:10:18.175Z,69.40
2018-01-22T04:12:46.460Z,69.40
2018-01-22T04:15:14.760Z,69.10
2018-01-22T04:17:43.034Z,69.40
2018-01-22T04:20:16.837Z,69.20
2018-01-22T04:22:46.586Z,70.00
2018-01-22T04:25:14.808Z,69.40
2018-01-22T04:27:43.114Z,69.30
2018-01-22T04:30:11.341Z,69.20
2018-01-22T04:32:39.633Z,69.40
2018-01-22T04:35:07.916Z,69.40
2018-01-22T04:37:36.187Z,69.40
2018-01-22T04:40:04.427Z,69.50
2018-01-22T04:42:32.667Z,69.60
2018-01-22T04:45:00.983Z,69.50
2018-01-22T04:47:29.212Z,69.80
2018-01-22T04:49:57.487Z,69.60
2018-01-22T04:52:25.776Z,69.50
2018-01-22T04:54:54.023Z,69.50
2018-01-22T04:57:22.329Z,69.50
2018-01-22T04:59:50.590Z,69.50
2018-01-22T05:02:18.874Z,69.40
2018-01-22T05:04:47.176Z,69.40
2018-01-22T05:07:15.442Z,69.60
2018-01-22T05:09:43.752Z,69.60
2018-01-22T05:12:12.748Z,69.50
2018-01-22T05:14:41.080Z,69.50
2018-01-22T05:17:09.317Z,69.50
2018-01-22T05:19:38.247Z,69.60
2018-01-22T05:22:06.548Z,69.60
2018-01-22T05:24:34.824Z,69.60
2018-01-22T05:27:03.223Z,69.50
2018-01-22T05:29:32.229Z,69.30
2018-01-22T05:32:00.445Z,69.30
2018-01-22T05:34:28.740Z,69.20
2018-01-22T05:36:56.963Z,69.30
2018-01-22T05:39:25.272Z,69.70
2018-01-22T05:41:53.557Z,70.20
2018-01-22T05:44:21.850Z,70.20
2018-01-22T05:46:50.089Z,70.10
2018-01-22T05:49:18.377Z,69.90
2018-01-22T05:51:46.698Z,69.80
2018-01-22T05:54:14.901Z,70.00
2018-01-22T05:56:43.205Z,70.00
2018-01-22T05:59:11.439Z,70.10
2018-01-22T06:01:40.030Z,70.00
2018-01-22T06:04:09.028Z,70.40
2018-01-22T06:06:37.259Z,70.40
2018-01-22T06:09:05.612Z,70.70
2018-01-22T06:11:33.897Z,70.40
2018-01-22T06:14:02.192Z,70.30
2018-01-22T06:16:30.467Z,70.50
2018-01-22T06:18:59.039Z,70.20
2018-01-22T06:21:27.294Z,70.30
2018-01-22T06:23:55.577Z,70.30
2018-01-22T06:26:24.680Z,70.20
2018-01-22T06:28:52.970Z,70.20
2018-01-22T06:31:21.628Z,70.20
2018-01-22T06:33:49.924Z,70.20
2018-01-22T06:36:18.160Z,70.40
2018-01-22T06:38:46.458Z,70.20
2018-01-22T06:41:14.701Z,70.40
2018-01-22T06:43:43.728Z,69.90
2018-01-22T06:46:12.023Z,69.80
2018-01-22T06:48:40.268Z,69.80
2018-01-22T06:51:08.536Z,69.80
2018-01-22T06:53:36.788Z,70.00
2018-01-22T06:56:05.955Z,70.20
2018-01-22T06:58:34.197Z,70.30
2018-01-22T07:01:02.477Z,70.40
2018-01-22T07:03:30.723Z,70.60
2018-01-22T07:05:58.955Z,70.30
2018-01-22T07:08:27.260Z,69.90
2018-01-22T07:10:55.528Z,70.70
2018-01-22T07:13:23.764Z,70.40
2018-01-22T07:15:52.710Z,70.20
2018-01-22T07:18:20.989Z,70.10
2018-01-22T07:20:49.287Z,70.40
2018-01-22T07:23:18.293Z,70.70
2018-01-22T07:25:46.547Z,70.60
2018-01-22T07:28:15.561Z,70.70
2018-01-22T07:30:44.592Z,70.70
2018-01-22T07:33:12.906Z,70.70
2018-01-22T07:35:41.131Z,70.60
2018-01-22T07:38:09.395Z,71.20
2018-01-22T07:40:37.671Z,71.50
2018-01-22T07:43:05.996Z,71.50
2018-01-22T07:45:34.232Z,71.30
2018-01-22T07:48:02.474Z,70.90
2018-01-22T07:50:31.940Z,71.40
2018-01-22T07:53:00.221Z,71.40
2018-01-22T07:55:28.530Z,72.40
2018-01-22T07:57:56.763Z,71.00
2018-01-22T08:00:25.009Z,71.80
2018-01-22T08:02:53.287Z,71.20
2018-01-22T08:05:22.338Z,71.40
2018-01-22T08:07:50.658Z,71.30
2018-01-22T08:10:19.657Z,71.20
2018-01-22T08:12:47.905Z,71.20
2018-01-22T08:15:16.972Z,71.10
2018-01-22T08:17:45.208Z,71.00
2018-01-22T08:20:13.572Z,70.60
2018-01-22T08:22:42.605Z,70.40
2018-01-22T08:25:10.843Z,70.50
2018-01-22T08:27:39.900Z,70.20
2018-01-22T08:30:08.192Z,70.20
2018-01-22T08:32:36.764Z,70.20
2018-01-22T08:35:05.828Z,70.30
2018-01-22T08:37:34.058Z,70.40
2018-01-22T08:40:03.198Z,70.70
2018-01-22T08:42:31.424Z,70.60
2018-01-22T08:44:59.712Z,70.80
2018-01-22T08:47:28.760Z,70.90
2018-01-22T08:49:56.998Z,70.80
2018-01-22T08:52:26.012Z,70.10
2018-01-22T08:54:54.256Z,70.20
2018-01-22T08:57:23.285Z,70.20
2018-01-22T08:59:51.542Z,70.20
2018-01-22T09:02:20.602Z,70.60
2018-01-22T09:04:48.918Z,70.50
2018-01-22T09:07:17.905Z,70.50
2018-01-22T09:09:47.694Z,71.20
2018-01-22T09:12:16.045Z,71.20
2018-01-22T09:14:44.400Z,71.40
2018-01-22T09:17:12.680Z,71.20
2018-01-22T09:19:40.908Z,71.10
2018-01-22T09:22:09.944Z,71.40
2018-01-22T09:24:38.191Z,71.40
2018-01-22T09:27:08.071Z,71.20
2018-01-22T09:29:36.304Z,71.20
2018-01-22T09:32:04.542Z,70.90
2018-01-22T09:34:32.852Z,70.80
2018-01-22T09:37:01.882Z,71.00
2018-01-22T09:39:30.160Z,71.00
2018-01-22T09:41:58.444Z,70.90
2018-01-22T09:44:26.749Z,71.10
2018-01-22T09:46:54.975Z,70.80
2018-01-22T09:49:23.212Z,71.20
2018-01-22T09:51:52.278Z,71.00
2018-01-22T09:54:20.539Z,70.90
2018-01-22T09:56:48.873Z,71.30
2018-01-22T09:59:17.912Z,71.00
2018-01-22T10:01:46.185Z,71.00
2018-01-22T10:04:14.428Z,71.70
2018-01-22T10:06:42.702Z,71.60
2018-01-22T10:09:11.013Z,71.70
2018-01-22T10:11:39.244Z,71.90
2018-01-22T10:14:08.263Z,72.00
2018-01-22T10:16:36.564Z,72.00
2018-01-22T10:19:04.796Z,71.90
2018-01-22T10:21:33.814Z,72.50
2018-01-22T10:24:02.108Z,72.50
2018-01-22T10:26:30.368Z,72.20
2018-01-22T10:28:58.617Z,72.10
2018-01-22T10:31:27.672Z,72.30
2018-01-22T10:33:56.722Z,73.30
2018-01-22T10:36:25.718Z,72.40
2018-01-22T10:38:54.043Z,72.40
2018-01-22T10:41:22.316Z,72.30
2018-01-22T10:43:50.570Z,72.20
2018-01-22T10:46:18.804Z,72.10
2018-01-22T10:48:47.812Z,72.50
2018-01-22T10:51:16.844Z,72.30
2018-01-22T10:53:45.134Z,72.20
2018-01-22T10:56:14.179Z,72.40
2018-01-22T10:58:43.197Z,72.10
2018-01-22T11:01:11.426Z,72.10
2018-01-22T11:03:39.705Z,72.30
2018-01-22T11:06:07.979Z,72.30
2018-01-22T11:08:36.220Z,72.30
2018-01-22T11:11:04.472Z,72.20
2018-01-22T11:13:32.757Z,72.40
2018-01-22T11:16:11.719Z,72.20
2018-01-22T11:18:39.953Z,72.20
2018-01-22T11:21:08.227Z,72.30
2018-01-22T11:23:36.481Z,72.50
2018-01-22T11:26:05.532Z,72.70
2018-01-22T11:28:33.820Z,72.60
2018-01-22T11:31:02.065Z,72.60
2018-01-22T11:33:30.348Z,72.50
2018-01-22T11:35:58.635Z,72.30
2018-01-22T11:38:26.890Z,72.10
2018-01-22T11:40:55.202Z,71.80
2018-01-22T11:43:23.486Z,72.00
2018-01-22T11:45:51.733Z,72.40
2018-01-22T11:48:20.233Z,72.20
2018-01-22T11:50:48.523Z,72.80
2018-01-22T11:53:16.847Z,72.30
2018-01-22T11:55:45.071Z,72.90
2018-01-22T11:58:13.337Z,72.70
2018-01-22T12:00:41.571Z,72.50
2018-01-22T12:03:10.636Z,72.20
2018-01-22T12:05:38.889Z,72.20
2018-01-22T12:08:07.130Z,72.80
2018-01-22T12:10:35.480Z,72.90
2018-01-22T12:13:03.708Z,72.70
2018-01-22T12:15:32.212Z,73.30
2018-01-22T12:18:00.462Z,72.70
2018-01-22T12:20:28.746Z,72.90
2018-01-22T12:22:57.040Z,72.50
2018-01-22T12:25:25.397Z,72.40
2018-01-22T12:27:53.699Z,72.40
2018-01-22T12:30:21.976Z,72.10
2018-01-22T12:32:50.303Z,72.10
2018-01-22T12:35:18.757Z,71.90
2018-01-22T12:37:46.983Z,71.70
2018-01-22T12:40:15.289Z,71.40
2018-01-22T12:42:43.537Z,71.60
2018-01-22T12:45:11.872Z,71.70
2018-01-22T12:47:40.149Z,72.00
2018-01-22T12:50:08.434Z,72.00
2018-01-22T12:52:37.458Z,72.20
2018-01-22T12:55:06.749Z,72.10
2018-01-22T12:57:35.048Z,72.20
2018-01-22T13:00:03.306Z,72.10
2018-01-22T13:02:31.618Z,71.90
2018-01-22T13:04:59.889Z,72.10
2018-01-22T13:07:28.117Z,72.00
2018-01-22T13:09:57.205Z,72.10
2018-01-22T13:12:25.474Z,72.10
2018-01-22T13:14:53.742Z,72.20
2018-01-22T13:17:21.967Z,73.20
2018-01-22T13:19:50.275Z,72.20
2018-01-22T13:22:18.540Z,72.60
2018-01-22T13:24:46.827Z,72.50
2018-01-22T13:27:15.143Z,72.40
2018-01-22T13:29:43.725Z,72.30
2018-01-22T13:32:12.041Z,72.20
2018-01-22T13:34:40.319Z,72.20
2018-01-22T13:37:08.639Z,72.40
2018-01-22T13:39:36.935Z,72.70
2018-01-22T13:42:05.214Z,72.50
2018-01-22T13:44:33.514Z,72.90
2018-01-22T13:47:01.796Z,72.40
2018-01-22T13:49:30.067Z,72.20
2018-01-22T13:51:58.310Z,72.10
2018-01-22T13:54:26.594Z,71.80
2018-01-22T13:56:54.892Z,71.70
2018-01-22T13:59:23.957Z,71.80
2018-01-22T14:01:52.240Z,71.80
2018-01-22T14:04:20.527Z,71.80
2018-01-22T14:06:48.809Z,71.90
2018-01-22T14:09:17.859Z,72.00
2018-01-22T14:11:46.124Z,72.00
2018-01-22T14:14:14.384Z,72.00
2018-01-22T14:16:42.654Z,71.90
2018-01-22T14:19:11.743Z,72.00
2018-01-22T14:21:40.790Z,72.00
2018-01-22T14:24:09.876Z,72.00
2018-01-22T14:26:38.152Z,71.90
2018-01-22T14:29:06.392Z,71.80
2018-01-22T14:31:35.454Z,71.90
2018-01-22T14:34:03.683Z,71.90
2018-01-22T14:36:31.982Z,71.80
2018-01-22T14:39:00.268Z,71.70
2018-01-22T14:41:28.492Z,71.70
2018-01-22T14:43:56.801Z,71.70
2018-01-22T14:46:25.021Z,71.50
2018-01-22T14:48:54.114Z,71.30
2018-01-22T14:51:22.411Z,71.90
2018-01-22T14:53:51.417Z,72.00
2018-01-22T14:56:19.747Z,72.00
2018-01-22T14:58:48.010Z,72.00
2018-01-22T15:01:16.313Z,71.90
2018-01-22T15:03:44.565Z,71.90
2018-01-22T15:06:12.849Z,72.00
2018-01-22T15:08:41.138Z,71.90
2018-01-22T15:11:09.410Z,71.70
2018-01-22T15:13:37.667Z,71.70
2018-01-22T15:16:05.909Z,71.60
2018-01-22T15:18:34.160Z,71.70
2018-01-22T15:21:03.180Z,72.20
2018-01-22T15:23:32.243Z,71.80
2018-01-22T15:26:00.572Z,71.80
2018-01-22T15:28:28.846Z,71.80
2018-01-22T15:30:57.096Z,71.60
2018-01-22T15:33:26.152Z,71.80
2018-01-22T15:35:54.451Z,71.70
2018-01-22T15:38:22.732Z,71.60
2018-01-22T15:40:51.004Z,71.60
2018-01-22T15:43:19.308Z,71.60
2018-01-22T15:45:48.352Z,71.80
2018-01-22T15:48:16.619Z,71.80
2018-01-22T15:50:44.930Z,72.00
2018-01-22T15:53:13.197Z,72.00
2018-01-22T15:55:41.485Z,72.10
2018-01-22T15:58:09.761Z,71.90
2018-01-22T16:00:38.047Z,71.80
2018-01-22T16:03:06.293Z,71.90
2018-01-22T16:05:34.603Z,72.10
2018-01-22T16:08:02.852Z,71.80
2018-01-22T16:10:31.175Z,71.50
2018-01-22T16:13:00.180Z,71.60
2018-01-22T16:15:28.431Z,71.60
2018-01-22T16:17:57.456Z,72.00
2018-01-22T16:20:26.664Z,71.90
2018-01-22T16:22:54.922Z,72.00
2018-01-22T16:25:23.530Z,72.30
2018-01-22T16:27:51.759Z,72.60
2018-01-22T16:30:21.638Z,72.60
2018-01-22T16:32:49.895Z,72.50
2018-01-22T16:35:18.165Z,72.80
2018-01-22T16:37:46.410Z,73.00
2018-01-22T16:40:15.475Z,73.10
2018-01-22T16:42:43.729Z,73.10
2018-01-22T16:45:12.008Z,73.40
2018-01-22T16:47:45.931Z,73.40
2018-01-22T16:50:14.169Z,72.80
2018-01-22T16:52:42.429Z,73.30
2018-01-22T16:55:11.602Z,73.70
2018-01-22T16:57:39.842Z,73.50
2018-01-22T17:00:08.196Z,73.40
2018-01-22T17:02:38.001Z,74.30
2018-01-22T17:05:06.291Z,74.20
2018-01-22T17:07:34.567Z,73.80
2018-01-22T17:10:02.874Z,73.90
2018-01-22T17:12:31.160Z,73.90
2018-01-22T17:14:59.450Z,74.30
2018-01-22T17:17:27.681Z,73.80
2018-01-22T17:19:55.968Z,73.60
2018-01-22T17:22:24.224Z,73.70
2018-01-22T17:24:52.550Z,74.20
2018-01-22T17:27:20.831Z,74.20
2018-01-22T17:29:49.113Z,73.90
2018-01-22T17:32:17.355Z,74.30
2018-01-22T17:34:45.642Z,74.30
2018-01-22T17:37:13.920Z,74.60
2018-01-22T17:39:42.176Z,75.00
2018-01-22T17:42:10.482Z,74.00
2018-01-22T17:44:38.721Z,73.70
2018-01-22T17:47:06.970Z,73.80
2018-01-22T17:49:36.048Z,74.40
2018-01-22T17:52:04.281Z,74.20
2018-01-22T17:54:32.583Z,74.30
2018-01-22T17:57:01.586Z,74.30
2018-01-22T17:59:29.857Z,74.30
2018-01-22T18:01:58.153Z,73.80
2018-01-22T18:04:27.203Z,74.60
2018-01-22T18:06:56.163Z,74.50
2018-01-22T18:09:25.214Z,74.40
2018-01-22T18:11:53.594Z,74.40
2018-01-22T18:14:21.871Z,74.30
2018-01-22T18:16:50.110Z,74.30
2018-01-22T18:19:18.384Z,74.40
2018-01-22T18:21:47.392Z,73.60
2018-01-22T18:24:15.663Z,73.60
2018-01-22T18:26:43.946Z,73.50
2018-01-22T18:29:13.100Z,73.70
2018-01-22T18:31:41.406Z,73.60
2018-01-22T18:34:10.439Z,73.60
2018-01-22T18:36:38.680Z,73.60
2018-01-22T18:39:06.977Z,74.00
2018-01-22T18:41:35.291Z,73.70
2018-01-22T18:44:03.581Z,73.60
2018-01-22T18:46:31.828Z,73.70
2018-01-22T18:49:00.092Z,73.80
2018-01-22T18:51:28.357Z,73.60
2018-01-22T18:53:56.727Z,73.70
2018-01-22T18:56:26.035Z,73.80
2018-01-22T18:58:54.322Z,74.00
2018-01-22T19:01:22.587Z,74.00
2018-01-22T19:03:50.904Z,73.70
2018-01-22T19:06:19.193Z,73.60
2018-01-22T19:08:47.480Z,74.00
2018-01-22T19:11:15.776Z,73.80
2018-01-22T19:13:44.815Z,73.60
2018-01-22T19:16:13.181Z,73.50
2018-01-22T19:18:41.505Z,73.60
2018-01-22T19:21:09.802Z,73.40
2018-01-22T19:23:38.833Z,73.70
2018-01-22T19:26:07.082Z,73.60
2018-01-22T19:28:35.377Z,73.90
2018-01-22T19:31:03.671Z,73.80
2018-01-22T19:33:31.943Z,73.70
2018-01-22T19:36:00.178Z,73.90
2018-01-22T19:38:29.283Z,73.60
2018-01-22T19:40:57.480Z,73.60
2018-01-22T19:43:25.823Z,73.60
2018-01-22T19:45:55.108Z,73.60
2018-01-22T19:48:23.368Z,73.30
2018-01-22T19:50:51.706Z,73.30
2018-01-22T19:53:21.657Z,73.30
2018-01-22T19:55:50.785Z,73.30
2018-01-22T19:58:19.049Z,73.00
2018-01-22T20:00:47.355Z,73.00
2018-01-22T20:03:16.362Z,72.70
2018-01-22T20:05:45.427Z,72.90
2018-01-22T20:08:13.666Z,72.90
2018-01-22T20:10:41.928Z,73.10
2018-01-22T20:13:10.215Z,72.80
2018-01-22T20:15:38.460Z,72.60
2018-01-22T20:18:07.476Z,72.60
2018-01-22T20:20:35.784Z,72.60
2018-01-22T20:23:04.136Z,72.80
2018-01-22T20:25:32.498Z,72.90
2018-01-22T20:28:00.790Z,73.10
2018-01-22T20:30:29.080Z,73.30
2018-01-22T20:32:57.363Z,73.30
2018-01-22T20:35:25.603Z,73.30
2018-01-22T20:37:54.708Z,73.50
2018-01-22T20:40:22.953Z,73.50
2018-01-22T20:42:52.051Z,73.20
2018-01-22T20:45:20.330Z,73.10
2018-01-22T20:47:48.665Z,73.00
2018-01-22T20:50:16.977Z,72.90
2018-01-22T20:52:45.270Z,72.50
2018-01-22T20:55:13.572Z,72.50
2018-01-22T20:57:41.863Z,72.50
2018-01-22T21:00:10.124Z,72.30
2018-01-22T21:02:38.440Z,72.30
2018-01-22T21:05:06.800Z,72.20
2018-01-22T21:07:35.136Z,72.30
2018-01-22T21:10:04.145Z,72.30
2018-01-22T21:12:34.044Z,72.40
2018-01-22T21:15:02.365Z,72.40
2018-01-22T21:17:30.629Z,72.70
2018-01-22T21:19:58.938Z,72.50
2018-01-22T21:22:27.259Z,72.50
2018-01-22T21:24:56.290Z,72.40
2018-01-22T21:27:25.279Z,72.30
2018-01-22T21:29:53.576Z,72.30
2018-01-22T21:32:21.851Z,72.10
2018-01-22T21:34:50.154Z,72.10
2018-01-22T21:37:18.450Z,72.10
2018-01-22T21:39:46.676Z,72.20
2018-01-22T21:42:14.989Z,72.10
2018-01-22T21:44:43.266Z,72.20
2018-01-22T21:47:11.550Z,72.30
2018-01-22T21:49:39.817Z,72.10
2018-01-22T21:52:08.144Z,72.10
2018-01-22T21:54:37.336Z,72.10
2018-01-22T21:57:06.391Z,72.70
2018-01-22T21:59:34.644Z,72.70
2018-01-22T22:02:02.929Z,72.60
2018-01-22T22:04:31.264Z,72.50
2018-01-22T22:07:01.175Z,72.50
2018-01-22T22:09:30.224Z,72.30
2018-01-22T22:11:58.472Z,72.20
2018-01-22T22:14:26.760Z,73.70
2018-01-22T22:16:55.039Z,73.20
2018-01-22T22:19:23.315Z,74.20
2018-01-22T22:21:51.590Z,74.00
2018-01-22T22:24:19.837Z,74.30
2018-01-22T22:26:48.144Z,74.50
2018-01-22T22:29:16.392Z,74.40
2018-01-22T22:31:44.681Z,74.50
2018-01-22T22:34:12.994Z,75.60
2018-01-22T22:36:41.270Z,76.10
2018-01-22T22:39:09.561Z,76.00
2018-01-22T22:41:37.799Z,76.40
2018-01-22T22:44:06.042Z,76.10
2018-01-22T22:46:35.064Z,76.60
2018-01-22T22:49:03.358Z,76.60
2018-01-22T22:51:31.612Z,76.00
2018-01-22T22:53:59.862Z,76.10
2018-01-22T22:56:28.955Z,76.20
2018-01-22T22:58:57.985Z,76.20
2018-01-22T23:01:26.281Z,76.20
2018-01-22T23:03:54.532Z,76.00
2018-01-22T23:06:22.777Z,76.20
2018-01-22T23:08:51.871Z,75.80
2018-01-22T23:11:20.129Z,75.70
2018-01-22T23:13:48.425Z,76.30
2018-01-22T23:16:16.664Z,75.90
2018-01-22T23:18:44.911Z,75.80
2018-01-22T23:21:13.212Z,75.80
2018-01-22T23:23:41.511Z,75.50
2018-01-22T23:26:09.781Z,75.50
2018-01-22T23:28:38.037Z,75.40
2018-01-22T23:31:06.328Z,75.70
2018-01-22T23:33:34.619Z,75.60
2018-01-22T23:36:02.918Z,75.70
2018-01-22T23:38:31.228Z,75.60
2018-01-22T23:40:59.519Z,75.50
2018-01-22T23:43:27.809Z,75.70
2018-01-22T23:45:56.081Z,76.50
2018-01-22T23:48:24.379Z,75.50
2018-01-22T23:50:52.671Z,75.50
2018-01-22T23:53:20.944Z,75.10
2018-01-22T23:55:49.247Z,75.20
2018-01-22T23:58:18.247Z,75.20
